EST,Max TemperatureF,Mean TemperatureF,Min TemperatureF,Max Dew PointF,MeanDew PointF,Min DewpointF,Max Humidity, Mean Humidity, Min Humidity, Max Sea Level PressureIn, Mean Sea Level PressureIn, Min Sea Level PressureIn, Max VisibilityMiles, Mean VisibilityMiles, Min VisibilityMiles, Max Wind SpeedMPH, Mean Wind SpeedMPH, Max Gust SpeedMPH,PrecipitationIn, CloudCover, Events, WindDirDegrees
2013-11-1,72,66,60,63,57,52,87,73,58,29.76,29.58,29.47,10,10,2,39,21,51,0.03,6,Rain,219
2013-11-2,66,58,50,52,45,40,89,65,40,29.73,29.66,29.60,10,10,10,18,5,22,T,5,,250
2013-11-3,53,44,34,45,32,14,85,59,33,30.40,30.08,29.75,10,9,2,16,11,23,0.03,6,Rain,341
2013-11-4,42,37,31,24,19,15,59,48,36,30.71,30.62,30.45,10,10,10,17,9,22,0.00,1,,13
2013-11-5,48,40,32,34,27,20,67,55,43,30.72,30.64,30.53,10,10,10,13,7,16,0.00,3,,214
2013-11-6,61,52,42,50,41,33,89,68,46,30.52,30.31,30.05,10,10,10,18,11,24,0.00,4,,203
2013-11-7,68,56,43,57,49,29,90,75,59,30.03,29.81,29.69,10,9,3,26,14,33,0.22,7,Rain,251
2013-11-8,50,44,38,30,24,19,58,48,38,30.10,29.94,29.82,10,10,10,26,14,36,0.00,3,,281
2013-11-9,47,41,35,28,21,17,56,44,31,30.21,30.14,30.06,10,10,10,21,12,31,0.00,6,,263
2013-11-10,58,50,42,41,34,29,89,66,43,30.02,29.84,29.74,10,10,6,24,12,35,0.03,6,Rain,239
2013-11-11,53,47,41,32,26,21,58,43,28,30.10,29.99,29.88,10,10,10,24,13,30,0.00,4,,257
2013-11-12,50,40,29,37,24,13,85,64,43,30.19,30.04,29.90,10,9,2,21,14,29,0.08,7,Rain-Snow,309
2013-11-13,38,32,26,14,12,7,57,45,32,30.29,30.23,30.18,10,10,10,22,13,30,0.00,0,,286
2013-11-14,52,41,30,21,18,14,53,40,26,30.15,30.10,30.05,10,10,10,20,12,25,0.00,3,,240
2013-11-15,62,50,38,33,22,14,58,39,19,30.20,30.16,30.11,10,10,10,17,9,22,0.00,6,,215
2013-11-16,59,50,40,37,30,22,82,53,24,30.33,30.28,30.20,10,10,10,15,5,21,0.00,4,,228
2013-11-17,55,47,38,54,46,35,100,86,71,30.32,30.17,29.86,10,5,0,15,3,17,0.04,8,Fog-Rain,98
2013-11-18,67,59,50,61,49,29,100,69,37,29.82,29.62,29.54,10,7,0,28,14,36,0.15,5,Fog-Rain,208
2013-11-19,50,41,32,27,19,14,49,40,31,30.28,29.96,29.67,10,10,10,28,17,36,0.00,2,,306
2013-11-20,43,36,29,14,11,9,53,39,24,30.63,30.50,30.31,10,10,10,18,10,24,0.00,1,,336
2013-11-21,48,39,29,30,18,12,57,43,29,30.65,30.55,30.39,10,10,10,13,7,16,0.00,3,,263
2013-11-22,48,45,42,45,42,31,100,81,62,30.36,30.07,29.83,10,4,0,12,5,15,0.25,8,Fog-Rain,114
2013-11-23,50,41,31,45,24,12,86,59,31,29.90,29.83,29.78,10,10,7,30,16,40,T,4,,288
2013-11-24,31,26,21,13,1,-8,55,39,23,30.19,29.95,29.79,10,10,10,36,22,51,T,1,,294
2013-11-25,34,26,18,16,0,-11,53,34,15,30.37,30.32,30.21,10,10,10,22,13,31,0.00,2,,262
2013-11-26,44,38,32,43,24,15,96,66,36,30.33,30.26,30.06,10,9,3,21,9,26,0.10,7,Rain-Snow,190
2013-11-27,62,51,39,59,50,31,100,87,73,30.01,29.46,29.23,10,5,1,35,17,46,1.79,8,Rain,189
2013-11-28,39,33,27,29,13,3,70,50,29,30.44,30.05,29.50,10,10,10,31,18,40,0.00,2,,281
2013-11-29,35,29,23,13,8,1,55,42,28,30.75,30.58,30.45,10,10,10,17,10,21,0.00,3,,317
2013-11-30,35,28,20,24,14,6,64,57,50,30.80,30.68,30.45,10,10,10,14,7,16,0.00,4,,72